Time;durP1;ratioP1;P1;durP2;ratioP2;P2;SDS_P1;SDS_P2;PMS_P1;PMS_P2;Temp;Humidity;BMP_temperature;BMP_pressure;BME280_temperature;BME280_humidity;BME280_pressure;Samples;Min_cycle;Max_cycle;Signal;HPM_P1;HPM_P2
2022/10/21 00:02:56;;;;;;;24.60;16.08;;;;;;;13.97;100.00;100048.38;20501937;28;20047;-84
2022/10/21 00:12:57;;;;;;;27.20;17.05;;;;;;;14.04;100.00;100063.06;20509789;28;20389;-84
2022/10/21 00:22:59;;;;;;;25.88;17.13;;;;;;;14.07;100.00;100098.00;20512684;28;20079;-84
2022/10/21 00:33:00;;;;;;;26.65;15.45;;;;;;;14.00;100.00;100075.47;20533526;28;20504;-84
2022/10/21 00:43:03;;;;;;;22.90;14.00;;;;;;;13.91;100.00;100040.72;20511700;28;20047;-85
2022/10/21 00:53:05;;;;;;;22.25;14.63;;;;;;;13.95;100.00;100035.28;20502726;28;20051;-84
2022/10/21 01:03:06;;;;;;;25.48;14.77;;;;;;;14.00;100.00;100011.44;20501608;28;20079;-85
2022/10/21 01:13:07;;;;;;;25.08;14.80;;;;;;;14.04;100.00;99998.09;20517035;28;20054;-85
2022/10/21 01:23:09;;;;;;;30.88;15.82;;;;;;;14.11;100.00;99973.25;20627843;28;20028;-84
2022/10/21 01:33:10;;;;;;;29.70;15.98;;;;;;;14.16;100.00;99938.00;20562344;28;20529;-84
2022/10/21 01:53:57;;;;;;;30.60;17.80;;;;;;;14.02;100.00;99928.00;20519682;28;20035;-83
2022/10/21 02:03:58;;;;;;;40.78;17.08;;;;;;;13.94;100.00;99922.13;20503642;28;20075;-84
2022/10/21 02:13:59;;;;;;;22.38;15.43;;;;;;;13.92;100.00;99914.31;20499263;28;20422;-84
2022/10/21 02:24:01;;;;;;;28.15;16.77;;;;;;;13.87;100.00;99895.19;20505828;28;20043;-84
2022/10/21 02:34:02;;;;;;;31.20;16.30;;;;;;;13.76;100.00;99855.28;20496568;28;20059;-84
2022/10/21 02:44:04;;;;;;;31.77;15.23;;;;;;;13.67;100.00;99868.78;20501522;28;20043;-83
2022/10/21 02:54:05;;;;;;;28.00;16.50;;;;;;;13.60;100.00;99860.25;20504990;23;20055;-71
2022/10/21 03:04:06;;;;;;;29.13;14.60;;;;;;;13.55;100.00;99849.88;20495948;28;20118;-71
2022/10/21 03:14:08;;;;;;;23.80;13.68;;;;;;;13.46;100.00;99842.34;20495728;28;20047;-72
2022/10/21 03:24:09;;;;;;;41.17;18.58;;;;;;;13.51;100.00;99843.03;20494396;28;20055;-72
2022/10/21 03:34:25;;;;;;;36.90;17.17;;;;;;;13.48;100.00;99839.66;20494785;28;20196;-71
2022/10/21 03:44:26;;;;;;;41.90;17.40;;;;;;;13.51;100.00;99837.78;20492117;28;20472;-73
2022/10/21 03:54:28;;;;;;;79.55;19.58;;;;;;;13.55;100.00;99831.47;20492820;28;20094;-72
2022/10/21 04:04:29;;;;;;;74.50;18.10;;;;;;;13.49;100.00;99826.44;20492033;28;20508;-71
2022/10/21 04:14:30;;;;;;;28.08;15.13;;;;;;;13.46;100.00;99821.31;20491710;28;20062;-72
2022/10/21 04:24:32;;;;;;;24.63;14.40;;;;;;;13.54;100.00;99813.97;20489775;28;20082;-72
2022/10/21 04:34:33;;;;;;;27.55;15.05;;;;;;;13.51;100.00;99792.19;20489415;29;20066;-73
2022/10/21 04:44:35;;;;;;;25.55;15.43;;;;;;;13.54;100.00;99827.13;20489423;28;20511;-72
2022/10/21 04:54:36;;;;;;;28.00;15.98;;;;;;;13.56;100.00;99820.06;20489310;28;20074;-75
2022/10/21 05:04:38;;;;;;;22.88;13.82;;;;;;;13.52;100.00;99807.06;20497874;29;20047;-75
2022/10/21 05:14:39;;;;;;;23.13;13.85;;;;;;;13.57;100.00;99797.25;20489979;29;20046;-75
2022/10/21 05:24:40;;;;;;;22.85;14.25;;;;;;;13.59;100.00;99771.72;20487315;28;20055;-74
2022/10/21 05:34:42;;;;;;;22.30;14.30;;;;;;;13.62;100.00;99763.72;20480167;28;20416;-74
2022/10/21 05:44:43;;;;;;;27.55;15.38;;;;;;;13.65;100.00;99765.38;20485310;29;20098;-74
2022/10/21 05:54:45;;;;;;;26.13;15.73;;;;;;;13.62;100.00;99762.88;20485403;28;20106;-77
2022/10/21 06:04:46;;;;;;;24.63;15.63;;;;;;;13.63;100.00;99765.44;20484067;29;20058;-74
2022/10/21 06:14:48;;;;;;;26.85;15.68;;;;;;;13.64;100.00;99756.63;20496918;28;20480;-73
2022/10/21 06:24:49;;;;;;;26.80;16.58;;;;;;;13.62;100.00;99779.50;20499466;29;20083;-72
2022/10/21 06:34:51;;;;;;;27.52;17.02;;;;;;;13.65;100.00;99816.19;20497883;28;20047;-73
2022/10/21 06:44:53;;;;;;;23.88;14.75;;;;;;;13.69;100.00;99816.94;20496503;29;20047;-73
2022/10/21 06:54:59;;;;;;;26.38;16.23;;;;;;;13.68;100.00;99797.69;20497101;28;20456;-75
2022/10/21 07:05:01;;;;;;;28.38;18.02;;;;;;;13.69;100.00;99795.91;20492105;28;20059;-79
2022/10/21 07:15:02;;;;;;;28.33;16.50;;;;;;;13.77;100.00;99821.00;20491483;28;20059;-77
2022/10/21 07:25:03;;;;;;;28.40;17.48;;;;;;;13.88;100.00;99819.75;20491512;28;20058;-76
2022/10/21 07:35:05;;;;;;;26.52;15.63;;;;;;;13.93;100.00;99809.88;20492146;28;20477;-77
2022/10/21 07:45:06;;;;;;;28.65;17.50;;;;;;;13.97;100.00;99854.47;20491303;29;20050;-77
2022/10/21 07:55:07;;;;;;;28.60;16.73;;;;;;;13.99;100.00;99857.91;20492654;28;20043;-77
2022/10/21 08:05:09;;;;;;;21.98;14.52;;;;;;;14.11;100.00;99867.09;20490813;28;20094;-77
2022/10/21 08:15:10;;;;;;;26.65;17.10;;;;;;;14.21;100.00;99865.81;20492702;29;20046;-80
2022/10/21 08:25:15;;;;;;;27.70;16.33;;;;;;;14.26;100.00;99870.91;20492566;29;20047;-78
2022/10/21 08:35:16;;;;;;;25.45;14.90;;;;;;;14.29;100.00;99844.47;20495185;28;20043;-78
2022/10/21 08:45:18;;;;;;;22.05;14.30;;;;;;;14.41;100.00;99869.44;20498814;28;20058;-77
2022/10/21 08:55:20;;;;;;;23.08;13.10;;;;;;;14.71;100.00;99883.16;20495636;28;20377;-79
2022/10/21 09:05:21;;;;;;;18.60;10.93;;;;;;;14.87;100.00;99900.09;20495613;28;20055;-76
2022/10/21 09:15:23;;;;;;;18.67;7.65;;;;;;;15.20;100.00;99900.44;20486904;28;20051;-76
2022/10/21 09:25:24;;;;;;;12.95;4.90;;;;;;;15.47;100.00;99901.00;20485858;29;20051;-76
2022/10/21 09:35:26;;;;;;;10.75;3.72;;;;;;;15.57;100.00;99906.75;20485324;28;20554;-73
2022/10/21 09:45:27;;;;;;;6.85;2.80;;;;;;;15.48;100.00;99920.38;20482105;29;20508;-73
2022/10/21 09:55:29;;;;;;;7.47;2.97;;;;;;;15.62;100.00;99926.75;20482418;28;20106;-73
2022/10/21 10:05:30;;;;;;;8.55;2.95;;;;;;;15.72;100.00;99939.59;20483291;28;20546;-72
2022/10/21 10:15:31;;;;;;;8.55;3.15;;;;;;;15.78;100.00;99942.81;20483746;29;20043;-72
2022/10/21 10:25:33;;;;;;;9.02;2.88;;;;;;;16.01;100.00;99954.97;20481598;29;20063;-70
2022/10/21 10:35:34;;;;;;;7.13;2.55;;;;;;;16.27;100.00;99958.19;20482260;29;20047;-70
2022/10/21 10:45:36;;;;;;;7.00;3.13;;;;;;;16.40;100.00;99947.00;20481796;29;20582;-71
2022/10/21 10:55:37;;;;;;;7.63;3.22;;;;;;;16.44;100.00;99960.94;20486543;28;20078;-71
2022/10/21 11:05:38;;;;;;;8.85;3.05;;;;;;;16.54;100.00;99943.69;20496968;28;20051;-71
2022/10/21 11:15:40;;;;;;;8.10;2.88;;;;;;;16.88;100.00;99936.81;20497070;29;20074;-71
2022/10/21 11:25:41;;;;;;;10.88;2.92;;;;;;;16.97;100.00;99946.94;20496052;28;20051;-71
2022/10/21 11:35:43;;;;;;;9.25;3.15;;;;;;;17.03;100.00;99941.34;20493377;29;20121;-72
2022/10/21 11:45:44;;;;;;;14.68;7.10;;;;;;;17.09;100.00;99935.75;20492697;29;20062;-72
2022/10/21 11:55:45;;;;;;;8.30;3.25;;;;;;;17.15;100.00;99934.56;20491781;29;20528;-72
2022/10/21 12:05:47;;;;;;;8.70;3.35;;;;;;;17.18;100.00;99940.56;20490071;28;20742;-71
2022/10/21 12:15:48;;;;;;;7.30;2.58;;;;;;;17.09;100.00;99935.75;20490466;29;20055;-72
2022/10/21 12:25:50;;;;;;;7.30;2.78;;;;;;;17.25;100.00;99934.97;20489697;29;20051;-74
2022/10/21 12:35:52;;;;;;;9.82;3.13;;;;;;;17.14;100.00;99912.56;20497766;28;20463;-75
2022/10/21 12:45:54;;;;;;;10.38;2.72;;;;;;;17.28;100.00;99913.66;20498658;28;20633;-73
2022/10/21 12:55:57;;;;;;;10.13;2.88;;;;;;;17.57;100.00;99910.34;20489607;28;20066;-73
2022/10/21 13:06:00;;;;;;;5.20;1.65;;;;;;;17.63;100.00;99899.47;20487128;29;20419;-73
2022/10/21 13:16:02;;;;;;;5.85;1.58;;;;;;;17.74;100.00;99909.50;20486931;28;20289;-73
2022/10/21 13:26:03;;;;;;;6.20;1.58;;;;;;;17.82;100.00;99909.09;20487153;29;20058;-73
2022/10/21 13:36:05;;;;;;;4.10;1.30;;;;;;;17.79;100.00;99903.97;20486594;28;20047;-74
2022/10/21 13:46:06;;;;;;;6.93;1.60;;;;;;;17.85;100.00;99919.53;20485016;29;20098;-73
2022/10/21 13:56:07;;;;;;;5.78;1.40;;;;;;;17.73;100.00;99909.56;20484380;28;20070;-71
2022/10/21 14:06:09;;;;;;;6.93;1.80;;;;;;;17.66;100.00;99896.63;20483761;28;20051;-71
2022/10/21 14:16:10;;;;;;;7.18;1.45;;;;;;;17.50;100.00;99897.53;20486656;28;20051;-72
2022/10/21 14:26:12;;;;;;;6.50;1.77;;;;;;;17.47;100.00;99885.31;20519915;23;20493;-81
2022/10/21 14:36:13;;;;;;;5.60;1.75;;;;;;;17.37;100.00;99890.22;20529966;28;20047;-79
2022/10/21 14:46:15;;;;;;;5.30;1.50;;;;;;;17.18;100.00;99892.94;20537457;28;20042;-80
2022/10/21 14:56:17;;;;;;;5.97;1.80;;;;;;;17.02;100.00;99897.31;20509430;28;20505;-81
2022/10/21 15:06:18;;;;;;;5.68;1.90;;;;;;;16.90;100.00;99892.63;20514791;28;20054;-81
2022/10/21 15:16:19;;;;;;;5.32;1.40;;;;;;;16.78;100.00;99903.84;20508547;28;20051;-81
2022/10/21 15:26:21;;;;;;;4.22;1.55;;;;;;;16.67;100.00;99905.19;20540279;28;20040;-81
2022/10/21 15:36:23;;;;;;;7.55;1.83;;;;;;;16.54;100.00;99896.13;20504110;28;20102;-80
2022/10/21 15:46:25;;;;;;;5.55;1.27;;;;;;;16.44;100.00;99904.59;20531480;28;20054;-80
2022/10/21 15:56:26;;;;;;;7.18;2.38;;;;;;;16.30;100.00;99886.75;20506675;28;20485;-81
2022/10/21 16:06:28;;;;;;;4.35;1.60;;;;;;;16.08;100.00;99893.00;20521095;28;20047;-80
2022/10/21 16:16:29;;;;;;;5.78;1.45;;;;;;;15.96;100.00;99888.31;20531441;28;20416;-82
2022/10/21 16:26:31;;;;;;;5.55;2.15;;;;;;;15.76;100.00;99885.69;20513281;28;20055;-81
2022/10/21 16:36:36;;;;;;;5.25;2.45;;;;;;;15.64;100.00;99893.25;20529870;28;20058;-82
2022/10/21 16:46:38;;;;;;;4.50;1.40;;;;;;;15.64;100.00;99892.41;20502413;28;20415;-82
2022/10/21 16:56:39;;;;;;;7.38;2.10;;;;;;;15.57;100.00;99902.34;20516291;28;20054;-85
2022/10/21 17:06:41;;;;;;;4.95;1.90;;;;;;;15.48;100.00;99892.19;20501022;28;20047;-84
2022/10/21 17:16:44;;;;;;;6.68;2.20;;;;;;;15.33;100.00;99898.13;20505101;29;20460;-83
2022/10/21 17:26:45;;;;;;;7.22;3.03;;;;;;;15.21;100.00;99909.22;20509980;28;20058;-82
2022/10/21 17:36:47;;;;;;;5.10;1.63;;;;;;;15.00;100.00;99911.84;20528150;28;20051;-82
2022/10/21 17:46:53;;;;;;;5.07;1.60;;;;;;;14.77;100.00;99910.16;20504153;29;20047;-83
2022/10/21 17:56:55;;;;;;;5.70;1.70;;;;;;;14.49;100.00;99899.00;20521469;28;20047;-82
2022/10/21 18:06:57;;;;;;;7.85;1.90;;;;;;;14.36;100.00;99904.72;20541187;28;20146;-84
2022/10/21 18:16:58;;;;;;;7.82;2.92;;;;;;;14.20;100.00;99898.34;20567165;28;20062;-83
2022/10/21 18:27:02;;;;;;;6.18;2.08;;;;;;;14.20;100.00;99908.00;20560533;28;20085;-82
2022/10/21 18:37:03;;;;;;;5.68;2.10;;;;;;;14.11;100.00;99899.53;20549566;28;20055;-82
2022/10/21 18:47:04;;;;;;;7.85;4.13;;;;;;;14.02;100.00;99905.16;20600326;28;20388;-83
2022/10/21 18:57:08;;;;;;;10.45;6.10;;;;;;;13.97;100.00;99917.63;20549637;28;20054;-80
2022/10/21 19:07:10;;;;;;;10.67;7.23;;;;;;;13.92;100.00;99924.84;20548501;28;20047;-80
2022/10/21 19:17:11;;;;;;;13.38;8.10;;;;;;;13.88;100.00;99906.59;20580645;28;20079;-80
2022/10/21 19:27:13;;;;;;;14.27;7.65;;;;;;;13.89;100.00;99890.72;20533308;28;20054;-80
2022/10/21 19:37:14;;;;;;;14.57;7.18;;;;;;;13.89;100.00;99888.09;20536317;28;20054;-80
2022/10/21 19:47:16;;;;;;;12.52;5.35;;;;;;;13.95;100.00;99893.16;20542284;28;20058;-80
2022/10/21 19:57:17;;;;;;;9.65;5.40;;;;;;;13.97;100.00;99900.97;20552620;28;20059;-83
2022/10/21 20:07:18;;;;;;;8.07;4.30;;;;;;;13.98;100.00;99906.19;20536859;28;20043;-82
2022/10/21 20:17:20;;;;;;;9.48;5.63;;;;;;;14.00;100.00;99922.78;20530211;28;20055;-83
2022/10/21 20:27:21;;;;;;;10.73;4.13;;;;;;;14.03;100.00;99943.72;20536909;28;20039;-83
2022/10/21 20:37:22;;;;;;;7.10;3.22;;;;;;;14.07;100.00;99940.06;20546732;28;20050;-83
2022/10/21 20:47:24;;;;;;;7.47;3.90;;;;;;;14.15;100.00;99936.28;20544413;28;20043;-84
2022/10/21 20:57:30;;;;;;;9.32;4.30;;;;;;;14.11;100.00;99861.81;20519965;23;20416;-79
2022/10/21 21:07:31;;;;;;;9.60;2.63;;;;;;;14.28;100.00;99911.22;20506575;28;20047;-78
2022/10/21 21:17:33;;;;;;;7.82;2.88;;;;;;;14.23;100.00;99952.63;20531730;28;20455;-79
2022/10/21 21:27:34;;;;;;;6.55;2.60;;;;;;;14.36;100.00;99946.84;20536765;28;20506;-78
2022/10/21 21:37:35;;;;;;;7.40;2.03;;;;;;;14.62;100.00;99930.06;20528397;28;20047;-79
2022/10/21 21:47:37;;;;;;;10.32;1.85;;;;;;;14.84;100.00;99942.38;20524142;28;20585;-78
2022/10/21 22:08:49;;;;;;;6.78;1.95;;;;;;;14.68;100.00;99907.03;20501327;28;20047;-78
2022/10/21 22:18:51;;;;;;;6.18;1.90;;;;;;;14.62;100.00;99927.44;20498125;28;20163;-79
2022/10/21 22:28:52;;;;;;;6.07;2.10;;;;;;;14.69;100.00;99943.00;20494918;29;20050;-80
2022/10/21 22:38:53;;;;;;;5.60;1.63;;;;;;;14.65;100.00;99946.66;20505334;28;20574;-79
2022/10/21 22:48:55;;;;;;;10.43;2.55;;;;;;;14.73;100.00;99949.88;20518254;28;20058;-80
2022/10/21 22:58:56;;;;;;;6.20;2.22;;;;;;;14.68;100.00;99972.91;20537218;28;20054;-79
2022/10/21 23:08:57;;;;;;;6.38;1.58;;;;;;;14.63;100.00;99997.66;20524829;28;20630;-80
2022/10/21 23:18:59;;;;;;;6.65;1.48;;;;;;;14.63;100.00;100004.69;20544273;28;20077;-78
2022/10/21 23:29:00;;;;;;;4.80;1.33;;;;;;;14.75;100.00;100021.81;20522990;28;20110;-79
2022/10/21 23:39:02;;;;;;;3.95;1.58;;;;;;;14.85;100.00;100017.88;20509663;28;20051;-79
2022/10/21 23:49:03;;;;;;;1.73;0.70;;;;;;;14.68;100.00;99979.03;20513202;28;20047;-79
2022/10/21 23:59:05;;;;;;;3.55;0.80;;;;;;;14.60;100.00;99971.41;20534417;28;20412;-80
